Time;durP1;ratioP1;P1;durP2;ratioP2;P2;SDS_P1;SDS_P2;PMS_P1;PMS_P2;Temp;Humidity;BMP_temperature;BMP_pressure;BME280_temperature;BME280_humidity;BME280_pressure;Samples;Min_cycle;Max_cycle;Signal;HPM_P1;HPM_P2
2022/01/02 00:00:19;;;;;;;9.18;3.28;;;11.40;99.90;;;;;;5026595;28;20041;-73
2022/01/02 00:02:50;;;;;;;9.75;4.13;;;11.50;99.90;;;;;;5026126;28;20088;-74
2022/01/02 00:05:20;;;;;;;6.93;3.38;;;11.50;99.90;;;;;;5025428;28;20032;-74
2022/01/02 00:08:06;;;;;;;6.85;3.42;;;11.50;99.90;;;;;;5026308;28;20040;-75
2022/01/02 00:10:36;;;;;;;6.25;2.85;;;11.50;99.90;;;;;;5025826;28;20038;-72
2022/01/02 00:13:03;;;;;;;7.65;3.42;;;11.40;99.90;;;;;;5025636;28;20032;-73
2022/01/02 00:15:30;;;;;;;8.07;3.50;;;11.50;99.90;;;;;;5025835;28;20025;-74
2022/01/02 00:18:05;;;;;;;11.25;3.53;;;11.50;99.90;;;;;;5025770;28;20046;-74
2022/01/02 00:20:36;;;;;;;14.32;3.58;;;11.50;99.90;;;;;;5025464;28;20081;-75
2022/01/02 00:23:08;;;;;;;14.65;3.05;;;11.50;99.90;;;;;;5025882;28;20459;-74
2022/01/02 00:25:39;;;;;;;11.38;3.08;;;11.50;99.90;;;;;;5024144;28;20030;-73
2022/01/02 00:28:06;;;;;;;9.18;3.05;;;11.40;99.90;;;;;;5025695;28;20030;-74
2022/01/02 00:30:33;;;;;;;11.30;3.33;;;11.40;99.90;;;;;;5025126;28;20501;-74
2022/01/02 00:33:00;;;;;;;6.82;3.03;;;11.40;99.90;;;;;;5025364;28;20026;-74
2022/01/02 00:35:27;;;;;;;3.85;2.70;;;11.40;99.90;;;;;;5024555;28;20029;-75
2022/01/02 00:37:53;;;;;;;5.68;2.33;;;11.40;99.90;;;;;;5025992;28;20034;-74
2022/01/02 00:40:19;;;;;;;7.00;2.10;;;11.40;99.90;;;;;;5025035;28;20052;-74
2022/01/02 00:42:47;;;;;;;5.30;2.63;;;11.40;99.90;;;;;;5025178;28;20120;-74
2022/01/02 00:45:23;;;;;;;5.47;2.55;;;11.40;99.90;;;;;;5024269;28;20615;-75
2022/01/02 00:48:14;;;;;;;5.55;2.13;;;11.40;99.90;;;;;;5025331;28;20038;-72
2022/01/02 00:50:48;;;;;;;4.72;2.40;;;11.40;99.90;;;;;;5025394;28;20032;-74
2022/01/02 00:53:17;;;;;;;6.15;2.92;;;11.40;99.90;;;;;;5025164;28;20026;-74
2022/01/02 00:55:45;;;;;;;6.03;2.95;;;11.40;99.90;;;;;;5023389;28;20626;-73
2022/01/02 00:58:14;;;;;;;6.28;2.72;;;11.40;99.90;;;;;;5025015;28;20029;-73
2022/01/02 01:00:47;;;;;;;10.00;3.47;;;11.40;99.90;;;;;;5023477;28;20032;-73
2022/01/02 01:03:20;;;;;;;8.97;3.60;;;11.40;99.90;;;;;;5025535;28;20042;-73
2022/01/02 01:05:47;;;;;;;16.95;3.40;;;11.40;99.90;;;;;;5024002;28;20033;-72
2022/01/02 01:08:12;;;;;;;8.10;3.08;;;11.40;99.90;;;;;;5040000;28;20030;-74
2022/01/02 01:10:40;;;;;;;9.15;3.15;;;11.40;99.90;;;;;;5025136;28;20030;-73
2022/01/02 01:13:10;;;;;;;10.73;3.95;;;11.40;99.90;;;;;;5025112;28;20022;-74
2022/01/02 01:15:37;;;;;;;14.82;3.40;;;11.40;99.90;;;;;;5024094;28;20036;-73
2022/01/02 01:18:03;;;;;;;5.78;2.97;;;11.50;99.90;;;;;;5024717;28;20048;-75
2022/01/02 01:20:41;;;;;;;9.88;3.38;;;11.40;99.90;;;;;;5023338;28;20033;-74
2022/01/02 01:23:15;;;;;;;8.02;3.15;;;11.50;99.90;;;;;;5023207;28;20399;-74
2022/01/02 01:25:44;;;;;;;27.10;3.33;;;11.50;99.90;;;;;;5024162;28;20370;-73
2022/01/02 01:28:11;;;;;;;9.05;3.35;;;11.50;99.90;;;;;;5024484;28;20034;-75
2022/01/02 01:30:40;;;;;;;5.93;2.58;;;11.50;99.90;;;;;;5024506;28;20086;-76
2022/01/02 01:33:05;;;;;;;7.38;2.85;;;11.40;99.90;;;;;;5024857;28;20026;-76
2022/01/02 01:35:31;;;;;;;4.45;2.40;;;11.40;99.90;;;;;;5024185;28;20057;-77
2022/01/02 01:37:57;;;;;;;9.20;3.65;;;11.20;99.90;;;;;;5039944;28;20049;-75
2022/01/02 01:40:23;;;;;;;12.05;3.55;;;11.20;99.90;;;;;;5024749;28;20037;-74
2022/01/02 01:43:01;;;;;;;7.82;3.88;;;11.20;99.90;;;;;;5024367;28;20030;-75
2022/01/02 01:45:29;;;;;;;10.20;4.43;;;11.20;99.90;;;;;;5023357;28;20378;-76
2022/01/02 01:48:01;;;;;;;10.23;4.40;;;11.10;99.90;;;;;;5024343;28;20026;-74
2022/01/02 01:50:31;;;;;;;11.75;4.43;;;11.00;99.90;;;;;;5022938;28;20025;-74
2022/01/02 01:52:57;;;;;;;13.38;4.05;;;11.00;99.90;;;;;;5024422;28;20041;-76
2022/01/02 01:55:24;;;;;;;11.90;4.43;;;11.00;99.90;;;;;;5022644;28;20026;-76
2022/01/02 01:57:53;;;;;;;9.77;4.32;;;11.00;99.90;;;;;;5024330;28;20037;-74
2022/01/02 02:00:21;;;;;;;14.55;3.90;;;10.90;99.90;;;;;;5023072;28;20029;-73
2022/01/02 02:02:47;;;;;;;11.68;4.35;;;11.00;99.90;;;;;;5024327;28;20034;-74
2022/01/02 02:05:14;;;;;;;16.38;3.95;;;10.90;99.90;;;;;;5022714;28;20041;-73
2022/01/02 02:07:42;;;;;;;11.48;4.35;;;10.90;99.90;;;;;;5022882;28;20603;-74
2022/01/02 02:10:34;;;;;;;10.50;4.88;;;10.90;99.90;;;;;;5023897;28;20083;-75
2022/01/02 02:13:02;;;;;;;8.93;4.20;;;10.90;99.90;;;;;;5022834;28;20036;-74
2022/01/02 02:15:29;;;;;;;21.42;5.10;;;10.90;99.90;;;;;;5023965;28;20040;-75
2022/01/02 02:17:55;;;;;;;16.40;4.10;;;10.90;99.90;;;;;;5023511;28;20057;-75
2022/01/02 02:20:29;;;;;;;8.02;3.95;;;10.90;99.90;;;;;;5024302;28;20028;-75
2022/01/02 02:22:57;;;;;;;8.90;4.20;;;11.00;99.90;;;;;;5023848;28;20068;-75
2022/01/02 02:25:27;;;;;;;9.98;4.55;;;10.90;99.90;;;;;;5022602;28;20034;-76
2022/01/02 02:27:58;;;;;;;18.15;4.57;;;10.90;99.90;;;;;;5024006;28;20036;-74
2022/01/02 02:30:27;;;;;;;15.10;5.13;;;10.90;99.90;;;;;;5022572;28;20037;-78
2022/01/02 02:32:59;;;;;;;11.07;4.75;;;10.90;99.90;;;;;;5024090;28;20036;-75
2022/01/02 02:35:27;;;;;;;10.50;4.68;;;10.90;99.90;;;;;;5022604;28;20101;-75
2022/01/02 02:37:53;;;;;;;14.27;4.95;;;11.00;99.90;;;;;;5024478;28;20038;-73
2022/01/02 02:40:21;;;;;;;22.00;5.32;;;10.90;99.90;;;;;;5027889;28;20459;-74
2022/01/02 02:42:56;;;;;;;18.10;6.22;;;10.90;99.90;;;;;;5027892;28;20077;-74
2022/01/02 02:51:02;;;;;;;18.75;6.03;;;10.90;99.90;;;;;;5027433;28;20049;-75
2022/01/02 02:53:28;;;;;;;12.50;4.43;;;10.80;99.90;;;;;;5027113;28;20029;-75
2022/01/02 02:55:57;;;;;;;12.63;5.28;;;10.90;99.90;;;;;;5026625;28;20026;-75
2022/01/02 03:01:00;;;;;;;11.45;4.53;;;10.80;99.90;;;;;;5027553;28;20049;-76
2022/01/02 03:03:26;;;;;;;13.30;5.05;;;10.80;99.90;;;;;;5027543;28;20038;-77
2022/01/02 03:05:53;;;;;;;36.25;5.35;;;10.80;99.90;;;;;;5025942;28;20097;-76
2022/01/02 03:08:19;;;;;;;15.07;4.47;;;10.80;99.90;;;;;;5027673;28;20083;-76
2022/01/02 03:10:44;;;;;;;13.57;4.28;;;10.80;99.90;;;;;;5027175;28;20078;-75
2022/01/02 03:13:10;;;;;;;13.70;4.95;;;10.80;99.90;;;;;;5026874;28;20034;-75
2022/01/02 03:15:35;;;;;;;11.52;4.68;;;10.80;99.90;;;;;;5025773;28;20030;-75
2022/01/02 03:18:01;;;;;;;12.32;5.20;;;10.70;99.90;;;;;;5025307;28;20567;-77
2022/01/02 03:20:27;;;;;;;17.83;4.65;;;10.70;99.90;;;;;;5026801;28;20030;-75
2022/01/02 03:22:54;;;;;;;11.00;5.53;;;10.70;99.90;;;;;;5025840;28;20049;-76
2022/01/02 03:25:19;;;;;;;14.43;5.30;;;10.70;99.90;;;;;;5027099;28;20029;-75
2022/01/02 03:27:45;;;;;;;9.68;4.95;;;10.70;99.90;;;;;;5026449;28;20037;-74
2022/01/02 03:30:12;;;;;;;13.52;4.55;;;10.60;99.90;;;;;;5027073;28;20086;-74
2022/01/02 03:32:38;;;;;;;24.83;5.47;;;10.70;99.90;;;;;;5026857;28;20090;-74
2022/01/02 03:35:04;;;;;;;10.65;3.83;;;10.70;99.90;;;;;;5025169;28;20061;-76
2022/01/02 03:37:33;;;;;;;11.98;4.82;;;10.70;99.90;;;;;;5025625;28;20045;-76
2022/01/02 03:39:59;;;;;;;16.00;5.05;;;10.70;99.90;;;;;;5026618;28;20033;-76
2022/01/02 03:42:30;;;;;;;12.93;4.60;;;10.70;99.90;;;;;;5026774;28;20046;-75
2022/01/02 03:44:59;;;;;;;13.80;5.15;;;10.70;99.90;;;;;;5025306;28;20068;-76
2022/01/02 03:47:26;;;;;;;12.32;5.25;;;10.70;99.90;;;;;;5026562;28;20496;-75
2022/01/02 03:49:52;;;;;;;9.95;4.80;;;10.70;99.90;;;;;;5026140;28;20033;-73
2022/01/02 03:52:18;;;;;;;8.27;4.20;;;10.70;99.90;;;;;;5026565;28;20858;-75
2022/01/02 03:54:44;;;;;;;15.10;5.32;;;10.70;99.90;;;;;;5025038;28;20711;-73
2022/01/02 03:57:10;;;;;;;11.30;5.05;;;10.80;99.90;;;;;;5025034;28;20026;-75
2022/01/02 03:59:35;;;;;;;14.65;5.82;;;10.80;99.90;;;;;;5026412;28;20553;-75
2022/01/02 04:02:01;;;;;;;13.02;5.78;;;10.70;99.90;;;;;;5024767;28;20022;-77
2022/01/02 04:04:28;;;;;;;15.45;5.38;;;10.70;99.90;;;;;;5026254;28;20048;-75
2022/01/02 04:06:54;;;;;;;12.13;5.82;;;10.70;99.90;;;;;;5026492;28;20022;-76
2022/01/02 04:09:20;;;;;;;13.38;5.68;;;10.70;99.90;;;;;;5026096;28;20049;-78
2022/01/02 04:11:46;;;;;;;12.93;4.82;;;10.70;99.90;;;;;;5024868;28;20030;-77
2022/01/02 04:14:12;;;;;;;15.93;6.07;;;10.70;99.90;;;;;;5026168;28;20392;-76
2022/01/02 04:16:37;;;;;;;13.13;6.15;;;10.70;99.90;;;;;;5025245;28;20048;-76
2022/01/02 04:19:03;;;;;;;14.38;5.20;;;10.70;99.90;;;;;;5024688;28;20080;-74
2022/01/02 04:21:29;;;;;;;14.07;5.07;;;10.70;99.90;;;;;;5025937;28;20398;-75
2022/01/02 04:23:54;;;;;;;12.23;4.95;;;10.70;99.90;;;;;;5024236;28;20490;-74
2022/01/02 04:26:20;;;;;;;18.83;6.53;;;10.70;99.90;;;;;;5026231;28;20106;-73
2022/01/02 04:28:45;;;;;;;19.00;6.53;;;10.70;99.90;;;;;;5025727;28;20052;-74
2022/01/02 04:31:11;;;;;;;12.48;5.03;;;10.70;99.90;;;;;;5025564;28;20132;-75
2022/01/02 04:33:38;;;;;;;18.10;6.05;;;10.70;99.90;;;;;;5025548;28;20119;-75
2022/01/02 04:36:04;;;;;;;16.92;5.95;;;10.70;99.90;;;;;;5024220;28;20056;-74
2022/01/02 04:38:30;;;;;;;19.23;5.40;;;10.70;99.90;;;;;;5025120;28;20026;-75
2022/01/02 04:40:56;;;;;;;13.57;5.65;;;10.70;99.90;;;;;;5025885;28;20022;-76
2022/01/02 04:43:23;;;;;;;16.83;5.80;;;10.70;99.90;;;;;;5024137;28;20033;-76
2022/01/02 04:45:49;;;;;;;12.77;5.38;;;10.70;99.90;;;;;;5025528;28;20041;-76
2022/01/02 04:48:14;;;;;;;13.68;6.20;;;10.70;99.90;;;;;;5025570;28;20030;-78
2022/01/02 04:50:40;;;;;;;15.07;5.25;;;10.70;99.90;;;;;;5025018;28;20109;-77
2022/01/02 04:53:06;;;;;;;16.75;5.75;;;10.70;99.90;;;;;;5023865;28;20092;-76
2022/01/02 04:55:32;;;;;;;10.23;5.28;;;10.70;99.90;;;;;;5024090;28;20030;-74
2022/01/02 04:57:57;;;;;;;18.85;6.95;;;10.70;99.90;;;;;;5023739;28;20030;-77
2022/01/02 05:00:25;;;;;;;11.90;5.50;;;10.70;99.90;;;;;;5024691;28;20458;-76
2022/01/02 05:02:52;;;;;;;17.92;5.28;;;10.70;99.90;;;;;;5025501;28;20033;-75
2022/01/02 05:05:17;;;;;;;16.70;5.85;;;10.70;99.90;;;;;;5024666;28;20029;-75
2022/01/02 05:07:43;;;;;;;20.63;5.65;;;10.70;99.90;;;;;;5025028;28;20041;-74
2022/01/02 05:10:08;;;;;;;12.85;5.93;;;10.70;99.90;;;;;;5024716;28;20104;-75
2022/01/02 05:12:34;;;;;;;9.77;4.97;;;10.70;99.90;;;;;;5023270;28;20026;-76
2022/01/02 05:15:01;;;;;;;28.77;5.72;;;10.70;99.90;;;;;;5024708;28;20037;-78
2022/01/02 05:17:27;;;;;;;13.48;4.75;;;10.70;99.90;;;;;;5024774;28;20049;-78
2022/01/02 05:19:53;;;;;;;23.98;6.18;;;10.70;99.90;;;;;;5024800;28;20029;-75
2022/01/02 05:22:19;;;;;;;9.43;3.33;;;10.70;99.90;;;;;;5025083;28;20363;-77
2022/01/02 05:24:44;;;;;;;16.23;5.18;;;10.70;99.90;;;;;;5024856;28;20072;-74
2022/01/02 05:27:19;;;;;;;18.75;6.40;;;10.70;99.90;;;;;;5024472;28;20041;-75
2022/01/02 05:29:45;;;;;;;17.13;5.72;;;10.70;99.90;;;;;;5024790;28;20482;-75
2022/01/02 05:32:11;;;;;;;11.80;5.07;;;10.70;99.90;;;;;;5024628;28;20048;-74
2022/01/02 05:34:36;;;;;;;18.27;4.95;;;10.70;99.90;;;;;;5024486;28;20033;-77
2022/01/02 05:37:02;;;;;;;15.23;5.60;;;10.80;99.90;;;;;;5023878;28;20045;-76
2022/01/02 05:39:40;;;;;;;20.13;5.50;;;10.80;99.90;;;;;;5024534;28;20022;-77
2022/01/02 05:42:06;;;;;;;8.80;3.42;;;10.80;99.90;;;;;;5024494;28;20474;-78
2022/01/02 05:44:32;;;;;;;19.58;5.68;;;10.80;99.90;;;;;;5024423;28;20038;-78
2022/01/02 05:46:58;;;;;;;10.85;4.18;;;10.80;99.90;;;;;;5024432;28;20537;-75
2022/01/02 05:49:32;;;;;;;8.20;3.45;;;10.80;99.90;;;;;;5024106;28;20068;-78
2022/01/02 05:51:58;;;;;;;;;;;10.80;99.90;;;;;;5025005;28;20508;-75
2022/01/02 05:54:25;;;;;;;14.35;3.85;;;10.90;99.90;;;;;;5024712;28;19906;-78
2022/01/02 05:56:51;;;;;;;7.18;3.67;;;10.90;99.90;;;;;;5023034;28;20030;-78
2022/01/02 05:59:16;;;;;;;19.88;3.85;;;10.90;99.90;;;;;;5023149;28;21050;-78
2022/01/02 06:01:42;;;;;;;5.45;3.25;;;11.00;99.90;;;;;;5024208;28;20041;-78
2022/01/02 06:04:07;;;;;;;10.85;3.83;;;11.00;99.90;;;;;;5024032;28;20038;-78
2022/01/02 06:06:33;;;;;;;11.38;4.15;;;11.00;99.90;;;;;;5023054;28;20034;-76
2022/01/02 06:08:59;;;;;;;10.02;3.70;;;11.00;99.90;;;;;;5023919;28;20096;-76
2022/01/02 06:11:25;;;;;;;17.63;5.45;;;11.00;99.90;;;;;;5023818;28;20026;-76
2022/01/02 06:13:50;;;;;;;7.32;3.60;;;11.00;99.90;;;;;;5023115;28;20092;-77
2022/01/02 06:16:16;;;;;;;8.05;3.30;;;11.00;99.90;;;;;;5021610;28;20116;-77
2022/01/02 06:18:42;;;;;;;9.13;4.55;;;11.00;99.90;;;;;;5022915;28;20026;-77
2022/01/02 06:21:07;;;;;;;16.52;4.78;;;11.00;99.90;;;;;;5022626;28;20094;-76
2022/01/02 06:23:33;;;;;;;9.35;3.15;;;11.10;99.90;;;;;;5023338;28;20044;-76
2022/01/02 06:26:08;;;;;;;17.30;4.10;;;11.10;99.90;;;;;;5022724;28;20026;-77
2022/01/02 06:28:33;;;;;;;7.93;3.65;;;11.10;99.90;;;;;;5023899;28;20101;-78
2022/01/02 06:30:59;;;;;;;18.45;5.38;;;11.10;99.90;;;;;;5022496;28;20564;-77
2022/01/02 06:33:25;;;;;;;10.35;3.58;;;11.10;99.90;;;;;;5023962;28;20054;-76
2022/01/02 06:35:50;;;;;;;9.05;3.65;;;11.10;99.90;;;;;;5022296;28;20188;-77
2022/01/02 06:38:19;;;;;;;8.02;3.97;;;11.10;99.90;;;;;;5022505;28;20044;-74
2022/01/02 06:40:45;;;;;;;9.38;3.75;;;11.10;99.90;;;;;;5022282;28;20034;-74
2022/01/02 06:43:13;;;;;;;7.43;3.42;;;11.10;99.90;;;;;;5023450;28;20077;-74
2022/01/02 06:45:39;;;;;;;8.23;2.80;;;11.10;99.90;;;;;;5024029;28;20045;-74
2022/01/02 06:48:05;;;;;;;15.68;3.78;;;11.20;99.90;;;;;;5023642;28;20056;-76
2022/01/02 06:50:35;;;;;;;14.95;3.83;;;11.20;99.90;;;;;;5023535;28;20117;-76
2022/01/02 06:53:01;;;;;;;22.48;4.18;;;11.30;99.90;;;;;;5022266;28;20025;-75
2022/01/02 06:55:27;;;;;;;6.57;3.00;;;11.20;99.90;;;;;;5022562;28;20041;-77
2022/01/02 06:57:53;;;;;;;14.25;3.55;;;11.20;99.90;;;;;;5023622;28;20026;-75
2022/01/02 07:00:31;;;;;;;11.50;2.75;;;11.20;99.90;;;;;;5022555;28;20026;-74
2022/01/02 07:02:58;;;;;;;9.35;3.65;;;11.20;99.90;;;;;;5022394;28;20060;-74
2022/01/02 07:05:24;;;;;;;10.20;3.70;;;11.20;99.90;;;;;;5022269;28;20409;-75
2022/01/02 07:07:51;;;;;;;5.65;2.88;;;11.30;99.90;;;;;;5023747;28;20022;-76
2022/01/02 07:10:17;;;;;;;9.20;3.38;;;11.30;99.90;;;;;;5021919;28;20030;-75
2022/01/02 07:12:43;;;;;;;4.30;2.50;;;11.30;99.90;;;;;;5022365;28;20090;-75
2022/01/02 07:15:10;;;;;;;12.63;3.08;;;11.30;99.90;;;;;;5022031;28;20386;-75
2022/01/02 07:17:36;;;;;;;14.07;2.88;;;11.30;99.90;;;;;;5022689;28;20061;-75
2022/01/02 07:20:07;;;;;;;6.20;2.22;;;11.40;99.90;;;;;;5022136;28;20030;-74
2022/01/02 07:22:36;;;;;;;6.13;2.75;;;11.30;99.90;;;;;;5022235;28;20029;-76
2022/01/02 07:25:04;;;;;;;6.80;2.25;;;11.40;99.90;;;;;;5023982;28;20045;-73
2022/01/02 07:27:30;;;;;;;5.43;3.20;;;11.40;99.90;;;;;;5025452;28;20141;-78
2022/01/02 07:29:56;;;;;;;19.08;2.15;;;11.40;99.90;;;;;;5026986;28;20045;-75
2022/01/02 07:32:22;;;;;;;14.40;3.72;;;11.50;99.90;;;;;;5025656;28;20641;-75
2022/01/02 07:34:48;;;;;;;7.63;2.70;;;11.50;99.90;;;;;;5025893;28;20022;-75
2022/01/02 07:37:14;;;;;;;6.40;3.05;;;11.50;99.90;;;;;;5026643;28;20030;-75
2022/01/02 07:39:40;;;;;;;6.32;2.53;;;11.50;99.90;;;;;;5025401;28;20036;-73
2022/01/02 07:42:06;;;;;;;4.97;2.40;;;11.50;99.90;;;;;;5026270;28;20057;-75
2022/01/02 07:44:32;;;;;;;6.35;1.90;;;11.60;99.90;;;;;;5017766;28;20042;-73
2022/01/02 07:47:01;;;;;;;10.07;2.75;;;11.60;99.90;;;;;;5017345;28;20448;-74
2022/01/02 07:49:26;;;;;;;20.35;2.47;;;11.60;99.90;;;;;;5017578;28;20026;-76
2022/01/02 07:51:52;;;;;;;8.10;2.78;;;11.50;99.90;;;;;;5016764;28;20041;-74
2022/01/02 07:54:18;;;;;;;8.80;2.97;;;11.50;99.90;;;;;;5024871;28;20021;-74
2022/01/02 07:56:43;;;;;;;5.00;2.88;;;11.60;99.90;;;;;;5013457;28;20133;-74
2022/01/02 07:59:09;;;;;;;5.25;2.25;;;11.60;99.90;;;;;;5022962;28;20026;-75
2022/01/02 08:01:35;;;;;;;14.93;3.30;;;11.60;99.90;;;;;;5024998;28;20026;-74
2022/01/02 08:04:00;;;;;;;11.93;2.75;;;11.60;99.90;;;;;;5025642;28;20045;-75
2022/01/02 08:06:27;;;;;;;13.85;3.70;;;11.60;99.90;;;;;;5013310;28;20030;-74
2022/01/02 08:08:53;;;;;;;6.55;2.97;;;11.60;99.90;;;;;;5015516;28;20062;-75
2022/01/02 08:11:19;;;;;;;7.60;3.47;;;11.60;99.90;;;;;;5015255;28;20030;-77
2022/01/02 08:13:44;;;;;;;14.15;2.90;;;11.60;99.90;;;;;;5015574;28;20406;-77
2022/01/02 08:16:11;;;;;;;7.18;3.08;;;11.60;99.90;;;;;;5022622;28;20029;-74
2022/01/02 08:18:37;;;;;;;19.85;4.00;;;11.60;99.90;;;;;;5025036;28;20032;-77
2022/01/02 08:21:03;;;;;;;15.25;3.75;;;11.60;99.90;;;;;;5025525;28;20026;-74
2022/01/02 08:23:28;;;;;;;13.55;4.15;;;11.60;99.90;;;;;;5025532;28;20057;-78
2022/01/02 08:25:54;;;;;;;5.85;3.50;;;11.60;99.90;;;;;;5026129;28;20022;-77
2022/01/02 08:28:19;;;;;;;14.05;3.47;;;11.60;99.90;;;;;;5025651;28;20033;-76
2022/01/02 08:30:47;;;;;;;13.75;4.75;;;11.50;99.90;;;;;;5024838;28;20025;-75
2022/01/02 08:33:14;;;;;;;8.63;3.72;;;11.60;99.90;;;;;;5024920;28;20036;-75
2022/01/02 08:35:40;;;;;;;15.32;4.13;;;11.50;99.90;;;;;;5025523;28;20030;-76
2022/01/02 08:38:06;;;;;;;13.57;4.03;;;11.50;99.90;;;;;;5025857;28;20090;-77
2022/01/02 08:40:32;;;;;;;8.93;3.35;;;11.60;99.90;;;;;;5025042;28;20045;-75
2022/01/02 08:42:58;;;;;;;10.45;3.92;;;11.60;99.90;;;;;;5023868;28;20114;-77
2022/01/02 08:45:24;;;;;;;27.92;4.25;;;11.60;99.90;;;;;;5024494;28;20042;-75
2022/01/02 08:47:50;;;;;;;10.95;3.65;;;11.50;99.90;;;;;;5025460;28;20061;-76
2022/01/02 08:50:15;;;;;;;6.05;3.42;;;11.60;99.90;;;;;;5024391;28;20034;-76
2022/01/02 08:52:41;;;;;;;13.50;3.60;;;11.60;99.90;;;;;;5025603;28;20050;-77
2022/01/02 08:55:07;;;;;;;7.40;3.53;;;11.60;99.90;;;;;;5025215;28;20076;-74
2022/01/02 08:57:32;;;;;;;13.65;3.88;;;11.60;99.90;;;;;;5023392;28;20029;-76
2022/01/02 08:59:58;;;;;;;11.93;4.18;;;11.60;99.90;;;;;;5022993;28;20037;-76
2022/01/02 09:02:25;;;;;;;18.30;4.43;;;11.60;99.90;;;;;;5024234;28;20450;-75
2022/01/02 09:04:51;;;;;;;9.98;3.38;;;11.70;99.90;;;;;;5021842;28;20041;-75
2022/01/02 09:07:16;;;;;;;9.50;3.63;;;11.70;99.90;;;;;;5023064;28;20466;-76
2022/01/02 09:09:42;;;;;;;6.95;2.47;;;11.70;99.90;;;;;;5025241;28;20038;-76
2022/01/02 09:12:08;;;;;;;12.00;3.08;;;11.70;99.90;;;;;;5023782;28;20017;-77
2022/01/02 09:14:35;;;;;;;4.63;2.58;;;11.70;99.90;;;;;;5023797;28;20052;-77
2022/01/02 09:17:01;;;;;;;12.07;5.43;;;11.70;99.90;;;;;;5023874;28;20077;-76
2022/01/02 09:19:36;;;;;;;12.45;2.58;;;11.70;99.90;;;;;;5025238;28;20086;-76
2022/01/02 09:22:03;;;;;;;13.95;3.80;;;11.70;99.90;;;;;;5024671;28;20026;-76
2022/01/02 09:24:29;;;;;;;7.35;3.08;;;11.70;99.90;;;;;;5024052;28;20038;-76
2022/01/02 09:27:05;;;;;;;12.63;3.05;;;11.70;99.90;;;;;;5021706;28;20025;-76
2022/01/02 09:29:31;;;;;;;4.95;2.40;;;11.70;99.90;;;;;;5022571;28;20029;-76
2022/01/02 09:31:58;;;;;;;6.13;2.53;;;11.70;99.90;;;;;;5024194;28;20034;-75
2022/01/02 09:34:25;;;;;;;5.70;2.53;;;11.70;99.90;;;;;;5025060;28;20083;-77
2022/01/02 09:36:52;;;;;;;23.00;3.15;;;11.70;99.90;;;;;;5024574;28;20025;-76
2022/01/02 09:39:28;;;;;;;9.48;2.70;;;11.70;99.90;;;;;;5024227;28;20105;-75
2022/01/02 09:42:02;;;;;;;6.78;2.80;;;11.70;99.90;;;;;;5022307;28;20060;-77
2022/01/02 09:44:33;;;;;;;5.80;2.20;;;11.60;99.90;;;;;;5020169;28;20461;-76
2022/01/02 09:47:01;;;;;;;17.92;3.83;;;11.60;99.90;;;;;;5023045;28;20473;-76
2022/01/02 09:49:41;;;;;;;6.60;2.72;;;11.60;99.90;;;;;;5024255;28;20044;-73
2022/01/02 09:52:07;;;;;;;4.18;2.45;;;11.60;99.90;;;;;;5022370;28;20026;-74
2022/01/02 09:54:34;;;;;;;5.13;2.90;;;11.60;99.90;;;;;;5024487;28;20049;-76
2022/01/02 09:57:01;;;;;;;4.40;2.38;;;11.60;99.90;;;;;;5013657;28;20038;-76
2022/01/02 09:59:27;;;;;;;4.72;2.22;;;11.60;99.90;;;;;;5011800;28;20018;-77
2022/01/02 10:01:53;;;;;;;9.18;2.90;;;11.70;99.90;;;;;;5021268;28;20041;-78
2022/01/02 10:04:39;;;;;;;10.30;2.85;;;11.60;99.90;;;;;;5020686;28;20045;-75
2022/01/02 10:07:23;;;;;;;7.28;2.78;;;11.60;99.90;;;;;;5016960;28;20030;-75
2022/01/02 10:09:51;;;;;;;8.13;2.47;;;11.60;99.90;;;;;;5020665;28;20548;-75
2022/01/02 10:12:29;;;;;;;6.72;2.80;;;11.60;99.90;;;;;;5032429;28;20042;-76
2022/01/02 10:15:19;;;;;;;7.00;3.05;;;11.60;99.90;;;;;;5027362;28;20038;-75
2022/01/02 10:18:06;;;;;;;9.73;2.40;;;11.50;99.90;;;;;;5024729;28;20746;-75
2022/01/02 10:20:44;;;;;;;16.45;3.38;;;11.50;99.90;;;;;;5022544;28;20030;-76
2022/01/02 10:23:20;;;;;;;6.10;2.38;;;11.50;99.90;;;;;;5024051;28;20045;-75
2022/01/02 10:25:56;;;;;;;4.45;2.28;;;11.50;99.90;;;;;;5022631;28;20041;-75
2022/01/02 10:28:43;;;;;;;7.15;2.67;;;11.50;99.90;;;;;;5020023;28;20056;-77
2022/01/02 10:31:12;;;;;;;5.68;2.15;;;11.50;99.90;;;;;;5006961;28;20034;-77
2022/01/02 10:34:08;;;;;;;7.68;2.95;;;11.50;99.90;;;;;;5020347;28;20057;-73
2022/01/02 10:36:40;;;;;;;3.22;2.33;;;11.60;99.90;;;;;;5019712;28;20034;-74
2022/01/02 10:39:18;;;;;;;4.55;2.63;;;11.60;99.90;;;;;;5021597;28;20045;-77
2022/01/02 10:41:49;;;;;;;8.55;2.58;;;11.60;99.90;;;;;;5018007;28;20066;-78
2022/01/02 10:44:35;;;;;;;6.15;2.80;;;11.60;99.90;;;;;;5019028;28;20046;-75
2022/01/02 10:47:15;;;;;;;8.00;3.42;;;11.70;99.90;;;;;;5022072;28;20497;-78
2022/01/02 10:49:52;;;;;;;6.90;2.78;;;11.70;99.90;;;;;;5022733;28;20421;-79
2022/01/02 10:52:20;;;;;;;6.40;2.38;;;11.70;99.90;;;;;;5023858;28;20038;-77
2022/01/02 10:54:46;;;;;;;8.02;3.63;;;11.70;99.90;;;;;;5023672;28;20022;-77
2022/01/02 10:57:12;;;;;;;6.00;2.63;;;11.80;99.90;;;;;;5022665;28;20488;-77
2022/01/02 10:59:39;;;;;;;12.75;3.05;;;11.70;99.90;;;;;;5024364;28;20037;-78
2022/01/02 11:02:05;;;;;;;6.97;3.08;;;11.70;99.90;;;;;;5021369;28;20042;-76
2022/01/02 11:04:33;;;;;;;8.35;3.25;;;11.70;99.90;;;;;;5021880;28;20041;-79
2022/01/02 11:07:04;;;;;;;6.13;2.97;;;11.70;99.90;;;;;;5027614;28;20033;-78
2022/01/02 11:09:32;;;;;;;7.40;3.90;;;11.80;99.90;;;;;;5025003;28;20037;-77
2022/01/02 11:11:58;;;;;;;4.50;2.15;;;11.80;99.90;;;;;;5031377;28;20034;-78
2022/01/02 11:14:28;;;;;;;6.78;3.03;;;11.80;99.90;;;;;;5027380;28;20029;-78
2022/01/02 11:16:57;;;;;;;5.00;2.70;;;11.80;99.90;;;;;;5026789;28;20057;-76
2022/01/02 11:19:28;;;;;;;3.65;2.17;;;11.90;99.90;;;;;;5027419;28;20029;-76
2022/01/02 11:22:02;;;;;;;7.80;3.38;;;11.80;99.90;;;;;;5023114;28;20402;-77
2022/01/02 11:24:33;;;;;;;5.35;2.75;;;11.90;99.90;;;;;;5026046;28;20053;-79
2022/01/02 11:27:25;;;;;;;12.63;2.85;;;11.90;99.90;;;;;;5025208;28;20103;-75
2022/01/02 11:29:51;;;;;;;4.10;2.58;;;11.90;99.90;;;;;;5007308;28;20045;-75
2022/01/02 11:32:25;;;;;;;6.88;2.72;;;12.00;99.90;;;;;;5012501;28;20030;-76
2022/01/02 11:34:52;;;;;;;6.28;2.78;;;12.00;99.90;;;;;;5021477;28;20120;-74
2022/01/02 11:37:25;;;;;;;16.25;3.58;;;12.10;99.90;;;;;;5022483;28;20030;-77
2022/01/02 11:40:02;;;;;;;9.60;2.92;;;12.10;99.90;;;;;;5020980;28;20074;-77
2022/01/02 11:42:44;;;;;;;11.45;3.15;;;12.20;99.90;;;;;;5037600;28;20038;-76
2022/01/02 11:45:45;;;;;;;9.13;4.13;;;12.30;99.90;;;;;;5022100;28;20050;-76
2022/01/02 11:48:30;;;;;;;6.40;3.17;;;12.80;99.90;;;;;;5015985;28;20014;-76
2022/01/02 11:50:57;;;;;;;;;;;12.90;99.90;;;;;;5020781;28;20046;-76
2022/01/02 11:53:28;;;;;;;14.70;2.95;;;12.80;99.90;;;;;;5020698;28;19906;-77
2022/01/02 11:55:55;;;;;;;9.00;2.80;;;12.70;99.90;;;;;;5026809;28;20022;-75
2022/01/02 11:59:04;;;;;;;3.83;2.03;;;12.60;99.90;;;;;;5024846;28;20037;-76
2022/01/02 12:01:57;;;;;;;7.38;2.20;;;12.50;99.90;;;;;;5020545;28;20101;-76
2022/01/02 12:07:35;;;;;;;7.30;2.95;;;12.40;99.90;;;;;;5026423;28;20041;-76
2022/01/02 12:10:16;;;;;;;5.40;2.30;;;12.30;99.90;;;;;;5023953;28;20048;-76
2022/01/02 12:12:59;;;;;;;8.98;2.78;;;12.30;99.90;;;;;;5025301;28;20383;-75
2022/01/02 12:15:34;;;;;;;3.55;2.40;;;12.20;99.90;;;;;;5023460;28;20038;-75
2022/01/02 12:18:10;;;;;;;5.07;1.98;;;12.20;99.90;;;;;;5024115;28;20069;-75
2022/01/02 12:20:51;;;;;;;6.90;2.72;;;12.20;99.90;;;;;;5024198;28;20050;-75
2022/01/02 12:23:41;;;;;;;7.28;2.53;;;12.20;99.90;;;;;;5025020;28;20034;-73
2022/01/02 12:26:11;;;;;;;5.50;3.15;;;12.20;99.90;;;;;;5023734;28;20030;-76
2022/01/02 12:28:44;;;;;;;9.93;3.03;;;12.10;99.90;;;;;;5025476;28;20081;-75
2022/01/02 12:31:18;;;;;;;7.97;2.30;;;12.20;99.90;;;;;;5024121;28;20034;-75
2022/01/02 12:33:45;;;;;;;10.25;3.05;;;12.10;99.90;;;;;;5023624;28;20025;-76
2022/01/02 12:36:17;;;;;;;9.43;2.42;;;12.10;99.90;;;;;;5023729;28;20152;-74
2022/01/02 12:38:57;;;;;;;11.68;2.92;;;12.20;99.90;;;;;;5025219;28;20029;-75
2022/01/02 12:41:25;;;;;;;8.23;2.72;;;12.20;99.90;;;;;;5025059;28;20425;-78
2022/01/02 12:44:04;;;;;;;4.50;2.42;;;12.20;99.90;;;;;;5024405;28;20051;-76
2022/01/02 12:46:33;;;;;;;6.28;2.05;;;12.30;99.90;;;;;;5025338;28;20029;-75
2022/01/02 12:49:00;;;;;;;6.40;3.03;;;12.20;99.90;;;;;;5025759;28;20033;-75
2022/01/02 12:51:33;;;;;;;5.43;2.42;;;12.30;99.90;;;;;;5025424;28;20401;-77
2022/01/02 12:54:02;;;;;;;7.72;3.20;;;12.30;99.90;;;;;;5025503;28;20053;-75
2022/01/02 12:56:51;;;;;;;4.53;1.98;;;12.30;99.90;;;;;;5025615;28;20026;-74
2022/01/02 12:59:20;;;;;;;10.65;3.88;;;12.30;99.90;;;;;;5025166;28;20057;-76
2022/01/02 13:02:03;;;;;;;4.55;2.45;;;12.30;99.90;;;;;;5025202;28;20033;-74
2022/01/02 13:04:35;;;;;;;4.43;2.08;;;12.30;99.90;;;;;;5025444;28;20096;-76